sensor_id;sensor_type;location;lat;lon;timestamp;P1;durP1;ratioP1;P2;durP2;ratioP2
4698;SDS011;33708;49.466;11.176;2023-04-16T00:01:05;12.97;;;6.83;;
4698;SDS011;33708;49.466;11.176;2023-04-16T00:03:30;13.93;;;7.30;;
4698;SDS011;33708;49.466;11.176;2023-04-16T00:05:56;14.90;;;7.70;;
4698;SDS011;33708;49.466;11.176;2023-04-16T00:08:22;14.23;;;6.67;;
4698;SDS011;33708;49.466;11.176;2023-04-16T00:10:53;18.27;;;7.23;;
4698;SDS011;33708;49.466;11.176;2023-04-16T00:13:19;16.43;;;7.63;;
4698;SDS011;33708;49.466;11.176;2023-04-16T00:15:45;13.43;;;7.23;;
4698;SDS011;33708;49.466;11.176;2023-04-16T00:18:11;14.90;;;7.50;;
4698;SDS011;33708;49.466;11.176;2023-04-16T00:20:36;14.50;;;7.53;;
4698;SDS011;33708;49.466;11.176;2023-04-16T00:23:02;14.00;;;7.50;;
4698;SDS011;33708;49.466;11.176;2023-04-16T00:25:28;19.23;;;9.00;;
4698;SDS011;33708;49.466;11.176;2023-04-16T00:27:53;16.07;;;8.23;;
4698;SDS011;33708;49.466;11.176;2023-04-16T00:30:19;19.10;;;8.60;;
4698;SDS011;33708;49.466;11.176;2023-04-16T00:32:45;16.80;;;8.80;;
4698;SDS011;33708;49.466;11.176;2023-04-16T00:35:10;16.33;;;8.17;;
4698;SDS011;33708;49.466;11.176;2023-04-16T00:37:39;13.87;;;8.10;;
4698;SDS011;33708;49.466;11.176;2023-04-16T00:40:04;14.33;;;8.17;;
4698;SDS011;33708;49.466;11.176;2023-04-16T00:42:31;14.70;;;7.80;;
4698;SDS011;33708;49.466;11.176;2023-04-16T00:44:57;14.40;;;8.13;;
4698;SDS011;33708;49.466;11.176;2023-04-16T00:47:22;17.73;;;8.53;;
4698;SDS011;33708;49.466;11.176;2023-04-16T00:49:48;13.07;;;7.83;;
4698;SDS011;33708;49.466;11.176;2023-04-16T00:52:14;14.20;;;7.90;;
4698;SDS011;33708;49.466;11.176;2023-04-16T00:54:40;15.60;;;9.40;;
4698;SDS011;33708;49.466;11.176;2023-04-16T00:57:06;13.60;;;8.10;;
4698;SDS011;33708;49.466;11.176;2023-04-16T00:59:31;16.10;;;8.90;;
4698;SDS011;33708;49.466;11.176;2023-04-16T01:02:02;13.23;;;7.50;;
4698;SDS011;33708;49.466;11.176;2023-04-16T01:04:31;14.47;;;7.60;;
4698;SDS011;33708;49.466;11.176;2023-04-16T01:06:58;13.27;;;7.37;;
4698;SDS011;33708;49.466;11.176;2023-04-16T01:09:24;13.60;;;7.80;;
4698;SDS011;33708;49.466;11.176;2023-04-16T01:11:50;14.17;;;7.93;;
4698;SDS011;33708;49.466;11.176;2023-04-16T01:14:16;16.90;;;8.30;;
4698;SDS011;33708;49.466;11.176;2023-04-16T01:16:41;13.97;;;8.27;;
4698;SDS011;33708;49.466;11.176;2023-04-16T01:19:07;14.67;;;7.67;;
4698;SDS011;33708;49.466;11.176;2023-04-16T01:21:33;14.40;;;7.97;;
4698;SDS011;33708;49.466;11.176;2023-04-16T01:24:02;12.70;;;7.27;;
4698;SDS011;33708;49.466;11.176;2023-04-16T01:26:31;15.03;;;8.73;;
4698;SDS011;33708;49.466;11.176;2023-04-16T01:28:57;12.70;;;7.27;;
4698;SDS011;33708;49.466;11.176;2023-04-16T01:31:23;14.00;;;8.00;;
4698;SDS011;33708;49.466;11.176;2023-04-16T01:33:48;15.77;;;8.63;;
4698;SDS011;33708;49.466;11.176;2023-04-16T01:36:14;13.20;;;7.80;;
4698;SDS011;33708;49.466;11.176;2023-04-16T01:38:39;14.63;;;8.47;;
4698;SDS011;33708;49.466;11.176;2023-04-16T01:41:05;15.10;;;9.37;;
4698;SDS011;33708;49.466;11.176;2023-04-16T01:43:31;15.20;;;7.97;;
4698;SDS011;33708;49.466;11.176;2023-04-16T01:48:39;13.87;;;8.53;;
4698;SDS011;33708;49.466;11.176;2023-04-16T01:51:04;13.77;;;7.70;;
4698;SDS011;33708;49.466;11.176;2023-04-16T01:53:30;13.43;;;7.77;;
4698;SDS011;33708;49.466;11.176;2023-04-16T01:55:56;14.77;;;7.93;;
4698;SDS011;33708;49.466;11.176;2023-04-16T01:58:21;13.37;;;7.77;;
4698;SDS011;33708;49.466;11.176;2023-04-16T02:00:47;14.20;;;8.00;;
4698;SDS011;33708;49.466;11.176;2023-04-16T02:03:12;12.70;;;7.20;;
4698;SDS011;33708;49.466;11.176;2023-04-16T02:05:39;14.53;;;7.90;;
4698;SDS011;33708;49.466;11.176;2023-04-16T02:08:05;13.53;;;8.03;;
4698;SDS011;33708;49.466;11.176;2023-04-16T02:10:30;14.50;;;7.47;;
4698;SDS011;33708;49.466;11.176;2023-04-16T02:12:56;13.17;;;6.97;;
4698;SDS011;33708;49.466;11.176;2023-04-16T02:15:21;12.37;;;6.70;;
4698;SDS011;33708;49.466;11.176;2023-04-16T02:17:49;12.90;;;7.53;;
4698;SDS011;33708;49.466;11.176;2023-04-16T02:20:19;17.70;;;8.10;;
4698;SDS011;33708;49.466;11.176;2023-04-16T02:22:44;15.00;;;8.73;;
4698;SDS011;33708;49.466;11.176;2023-04-16T02:25:10;13.53;;;8.23;;
4698;SDS011;33708;49.466;11.176;2023-04-16T02:27:35;14.90;;;8.77;;
4698;SDS011;33708;49.466;11.176;2023-04-16T02:30:01;15.63;;;8.20;;
4698;SDS011;33708;49.466;11.176;2023-04-16T02:32:28;14.07;;;8.30;;
4698;SDS011;33708;49.466;11.176;2023-04-16T02:34:54;17.23;;;7.70;;
4698;SDS011;33708;49.466;11.176;2023-04-16T02:37:21;14.40;;;7.90;;
4698;SDS011;33708;49.466;11.176;2023-04-16T02:39:47;14.77;;;8.10;;
4698;SDS011;33708;49.466;11.176;2023-04-16T02:42:14;14.70;;;8.10;;
4698;SDS011;33708;49.466;11.176;2023-04-16T02:44:40;16.77;;;8.73;;
4698;SDS011;33708;49.466;11.176;2023-04-16T02:47:06;14.00;;;7.97;;
4698;SDS011;33708;49.466;11.176;2023-04-16T02:49:31;18.53;;;9.70;;
4698;SDS011;33708;49.466;11.176;2023-04-16T02:51:57;14.80;;;8.40;;
4698;SDS011;33708;49.466;11.176;2023-04-16T02:54:23;15.67;;;8.70;;
4698;SDS011;33708;49.466;11.176;2023-04-16T02:56:48;14.27;;;8.27;;
4698;SDS011;33708;49.466;11.176;2023-04-16T02:59:14;15.33;;;9.17;;
4698;SDS011;33708;49.466;11.176;2023-04-16T03:01:40;14.80;;;8.40;;
4698;SDS011;33708;49.466;11.176;2023-04-16T03:04:05;15.60;;;8.50;;
4698;SDS011;33708;49.466;11.176;2023-04-16T03:06:31;18.93;;;9.77;;
4698;SDS011;33708;49.466;11.176;2023-04-16T03:08:56;16.43;;;9.40;;
4698;SDS011;33708;49.466;11.176;2023-04-16T03:11:22;16.93;;;9.00;;
4698;SDS011;33708;49.466;11.176;2023-04-16T03:13:48;15.80;;;8.97;;
4698;SDS011;33708;49.466;11.176;2023-04-16T03:16:14;17.93;;;9.13;;
4698;SDS011;33708;49.466;11.176;2023-04-16T03:18:39;15.40;;;8.60;;
4698;SDS011;33708;49.466;11.176;2023-04-16T03:21:05;17.27;;;9.73;;
4698;SDS011;33708;49.466;11.176;2023-04-16T03:23:30;17.03;;;8.20;;
4698;SDS011;33708;49.466;11.176;2023-04-16T03:25:56;15.63;;;8.60;;
4698;SDS011;33708;49.466;11.176;2023-04-16T03:28:21;14.37;;;7.83;;
4698;SDS011;33708;49.466;11.176;2023-04-16T03:30:51;17.83;;;9.47;;
4698;SDS011;33708;49.466;11.176;2023-04-16T03:33:17;15.80;;;8.60;;
4698;SDS011;33708;49.466;11.176;2023-04-16T03:35:43;16.60;;;9.33;;
4698;SDS011;33708;49.466;11.176;2023-04-16T03:38:09;15.40;;;8.90;;
4698;SDS011;33708;49.466;11.176;2023-04-16T03:40:34;16.00;;;9.00;;
4698;SDS011;33708;49.466;11.176;2023-04-16T03:43:00;15.50;;;9.23;;
4698;SDS011;33708;49.466;11.176;2023-04-16T03:45:26;16.87;;;8.97;;
4698;SDS011;33708;49.466;11.176;2023-04-16T03:47:51;15.73;;;9.20;;
4698;SDS011;33708;49.466;11.176;2023-04-16T03:50:17;15.90;;;9.87;;
4698;SDS011;33708;49.466;11.176;2023-04-16T03:52:43;14.93;;;8.70;;
4698;SDS011;33708;49.466;11.176;2023-04-16T03:55:10;15.40;;;8.13;;
4698;SDS011;33708;49.466;11.176;2023-04-16T03:57:36;16.80;;;9.80;;
4698;SDS011;33708;49.466;11.176;2023-04-16T04:00:02;17.80;;;9.17;;
4698;SDS011;33708;49.466;11.176;2023-04-16T04:02:28;18.20;;;9.37;;
4698;SDS011;33708;49.466;11.176;2023-04-16T04:04:54;16.60;;;9.70;;
4698;SDS011;33708;49.466;11.176;2023-04-16T04:07:20;15.80;;;8.47;;
4698;SDS011;33708;49.466;11.176;2023-04-16T04:09:45;18.80;;;10.60;;
4698;SDS011;33708;49.466;11.176;2023-04-16T04:12:11;20.73;;;10.10;;
4698;SDS011;33708;49.466;11.176;2023-04-16T04:14:37;15.27;;;8.97;;
4698;SDS011;33708;49.466;11.176;2023-04-16T04:17:04;20.33;;;10.77;;
4698;SDS011;33708;49.466;11.176;2023-04-16T04:19:30;16.50;;;9.70;;
4698;SDS011;33708;49.466;11.176;2023-04-16T04:21:56;16.60;;;10.03;;
4698;SDS011;33708;49.466;11.176;2023-04-16T04:24:22;20.90;;;10.03;;
4698;SDS011;33708;49.466;11.176;2023-04-16T04:26:48;20.47;;;11.13;;
4698;SDS011;33708;49.466;11.176;2023-04-16T04:29:13;15.13;;;8.30;;
4698;SDS011;33708;49.466;11.176;2023-04-16T04:31:39;17.03;;;9.63;;
4698;SDS011;33708;49.466;11.176;2023-04-16T04:34:05;16.97;;;10.07;;
4698;SDS011;33708;49.466;11.176;2023-04-16T04:36:30;20.10;;;10.67;;
4698;SDS011;33708;49.466;11.176;2023-04-16T04:38:56;18.40;;;10.90;;
4698;SDS011;33708;49.466;11.176;2023-04-16T04:41:21;19.40;;;10.80;;
4698;SDS011;33708;49.466;11.176;2023-04-16T04:43:47;16.50;;;9.57;;
4698;SDS011;33708;49.466;11.176;2023-04-16T04:46:13;16.30;;;9.73;;
4698;SDS011;33708;49.466;11.176;2023-04-16T04:48:38;17.53;;;9.50;;
4698;SDS011;33708;49.466;11.176;2023-04-16T04:51:04;16.33;;;8.83;;
4698;SDS011;33708;49.466;11.176;2023-04-16T04:53:30;16.47;;;8.40;;
4698;SDS011;33708;49.466;11.176;2023-04-16T04:55:55;16.00;;;8.47;;
4698;SDS011;33708;49.466;11.176;2023-04-16T04:58:21;15.87;;;8.37;;
4698;SDS011;33708;49.466;11.176;2023-04-16T05:00:46;15.13;;;6.50;;
4698;SDS011;33708;49.466;11.176;2023-04-16T05:03:12;12.73;;;6.70;;
4698;SDS011;33708;49.466;11.176;2023-04-16T05:05:44;13.10;;;6.47;;
4698;SDS011;33708;49.466;11.176;2023-04-16T05:08:10;12.87;;;6.47;;
4698;SDS011;33708;49.466;11.176;2023-04-16T05:10:35;12.23;;;6.70;;
4698;SDS011;33708;49.466;11.176;2023-04-16T05:13:01;12.00;;;5.97;;
4698;SDS011;33708;49.466;11.176;2023-04-16T05:15:27;12.70;;;6.17;;
4698;SDS011;33708;49.466;11.176;2023-04-16T05:17:52;12.10;;;5.70;;
4698;SDS011;33708;49.466;11.176;2023-04-16T05:20:20;11.47;;;5.47;;
4698;SDS011;33708;49.466;11.176;2023-04-16T05:22:46;12.97;;;7.20;;
4698;SDS011;33708;49.466;11.176;2023-04-16T05:25:13;16.63;;;8.43;;
4698;SDS011;33708;49.466;11.176;2023-04-16T05:27:38;15.40;;;5.90;;
4698;SDS011;33708;49.466;11.176;2023-04-16T05:30:04;14.27;;;7.10;;
4698;SDS011;33708;49.466;11.176;2023-04-16T05:32:30;12.50;;;6.60;;
4698;SDS011;33708;49.466;11.176;2023-04-16T05:34:56;12.47;;;6.40;;
4698;SDS011;33708;49.466;11.176;2023-04-16T05:37:21;14.40;;;6.90;;
4698;SDS011;33708;49.466;11.176;2023-04-16T05:39:47;13.00;;;6.53;;
4698;SDS011;33708;49.466;11.176;2023-04-16T05:42:13;13.33;;;6.80;;
4698;SDS011;33708;49.466;11.176;2023-04-16T05:44:39;14.20;;;7.90;;
4698;SDS011;33708;49.466;11.176;2023-04-16T05:47:04;13.40;;;6.50;;
4698;SDS011;33708;49.466;11.176;2023-04-16T05:49:33;13.77;;;6.93;;
4698;SDS011;33708;49.466;11.176;2023-04-16T05:51:59;14.60;;;7.00;;
4698;SDS011;33708;49.466;11.176;2023-04-16T05:54:25;12.73;;;5.83;;
4698;SDS011;33708;49.466;11.176;2023-04-16T05:56:51;20.03;;;7.03;;
4698;SDS011;33708;49.466;11.176;2023-04-16T05:59:16;12.50;;;5.90;;
4698;SDS011;33708;49.466;11.176;2023-04-16T06:01:42;12.60;;;6.20;;
4698;SDS011;33708;49.466;11.176;2023-04-16T06:04:07;14.57;;;6.80;;
4698;SDS011;33708;49.466;11.176;2023-04-16T06:06:33;14.00;;;7.20;;
4698;SDS011;33708;49.466;11.176;2023-04-16T06:09:01;16.63;;;8.93;;
4698;SDS011;33708;49.466;11.176;2023-04-16T06:11:28;15.47;;;8.17;;
4698;SDS011;33708;49.466;11.176;2023-04-16T06:13:54;18.03;;;9.07;;
4698;SDS011;33708;49.466;11.176;2023-04-16T06:16:20;17.60;;;9.50;;
4698;SDS011;33708;49.466;11.176;2023-04-16T06:18:46;15.10;;;8.13;;
4698;SDS011;33708;49.466;11.176;2023-04-16T06:21:11;16.10;;;8.40;;
4698;SDS011;33708;49.466;11.176;2023-04-16T06:23:37;16.77;;;8.90;;
4698;SDS011;33708;49.466;11.176;2023-04-16T06:26:03;14.33;;;7.20;;
4698;SDS011;33708;49.466;11.176;2023-04-16T06:28:29;14.43;;;6.77;;
4698;SDS011;33708;49.466;11.176;2023-04-16T06:30:55;11.70;;;5.80;;
4698;SDS011;33708;49.466;11.176;2023-04-16T06:33:21;12.33;;;6.00;;
4698;SDS011;33708;49.466;11.176;2023-04-16T06:35:47;11.90;;;5.67;;
4698;SDS011;33708;49.466;11.176;2023-04-16T06:38:12;13.20;;;6.60;;
4698;SDS011;33708;49.466;11.176;2023-04-16T06:40:38;12.80;;;6.00;;
4698;SDS011;33708;49.466;11.176;2023-04-16T06:43:04;12.00;;;5.80;;
4698;SDS011;33708;49.466;11.176;2023-04-16T06:45:30;12.77;;;5.63;;
4698;SDS011;33708;49.466;11.176;2023-04-16T06:47:56;13.50;;;6.50;;
4698;SDS011;33708;49.466;11.176;2023-04-16T06:50:23;13.73;;;6.60;;
4698;SDS011;33708;49.466;11.176;2023-04-16T06:52:50;14.13;;;6.77;;
4698;SDS011;33708;49.466;11.176;2023-04-16T06:55:16;12.40;;;5.90;;
4698;SDS011;33708;49.466;11.176;2023-04-16T06:57:42;13.60;;;6.50;;
4698;SDS011;33708;49.466;11.176;2023-04-16T07:00:08;13.43;;;5.93;;
4698;SDS011;33708;49.466;11.176;2023-04-16T07:02:34;11.80;;;5.87;;
4698;SDS011;33708;49.466;11.176;2023-04-16T07:04:59;12.83;;;6.13;;
4698;SDS011;33708;49.466;11.176;2023-04-16T07:07:25;12.87;;;5.77;;
4698;SDS011;33708;49.466;11.176;2023-04-16T07:09:51;12.43;;;5.37;;
4698;SDS011;33708;49.466;11.176;2023-04-16T07:12:16;11.87;;;5.40;;
4698;SDS011;33708;49.466;11.176;2023-04-16T07:14:42;11.70;;;5.17;;
4698;SDS011;33708;49.466;11.176;2023-04-16T07:17:07;12.53;;;5.57;;
4698;SDS011;33708;49.466;11.176;2023-04-16T07:19:33;11.40;;;5.13;;
4698;SDS011;33708;49.466;11.176;2023-04-16T07:21:59;10.53;;;4.40;;
4698;SDS011;33708;49.466;11.176;2023-04-16T07:24:25;10.23;;;4.27;;
4698;SDS011;33708;49.466;11.176;2023-04-16T07:26:51;11.20;;;4.50;;
4698;SDS011;33708;49.466;11.176;2023-04-16T07:29:16;11.90;;;5.47;;
4698;SDS011;33708;49.466;11.176;2023-04-16T07:31:42;12.07;;;5.53;;
4698;SDS011;33708;49.466;11.176;2023-04-16T07:34:09;11.13;;;4.57;;
4698;SDS011;33708;49.466;11.176;2023-04-16T07:36:35;9.80;;;3.90;;
4698;SDS011;33708;49.466;11.176;2023-04-16T07:39:00;10.53;;;4.30;;
4698;SDS011;33708;49.466;11.176;2023-04-16T07:41:26;9.80;;;3.83;;
4698;SDS011;33708;49.466;11.176;2023-04-16T07:43:53;23.23;;;3.83;;
4698;SDS011;33708;49.466;11.176;2023-04-16T07:46:19;11.40;;;4.90;;
4698;SDS011;33708;49.466;11.176;2023-04-16T07:48:45;10.13;;;4.47;;
4698;SDS011;33708;49.466;11.176;2023-04-16T07:51:11;11.50;;;4.87;;
4698;SDS011;33708;49.466;11.176;2023-04-16T07:53:37;10.67;;;4.00;;
4698;SDS011;33708;49.466;11.176;2023-04-16T07:56:03;9.07;;;3.37;;
4698;SDS011;33708;49.466;11.176;2023-04-16T07:58:29;10.20;;;3.33;;
4698;SDS011;33708;49.466;11.176;2023-04-16T08:00:54;8.63;;;2.87;;
4698;SDS011;33708;49.466;11.176;2023-04-16T08:03:20;8.77;;;2.87;;
4698;SDS011;33708;49.466;11.176;2023-04-16T08:05:46;8.67;;;3.30;;
4698;SDS011;33708;49.466;11.176;2023-04-16T08:08:11;8.10;;;2.50;;
4698;SDS011;33708;49.466;11.176;2023-04-16T08:10:37;11.13;;;3.20;;
4698;SDS011;33708;49.466;11.176;2023-04-16T08:13:03;9.37;;;2.53;;
4698;SDS011;33708;49.466;11.176;2023-04-16T08:15:29;7.93;;;2.17;;
4698;SDS011;33708;49.466;11.176;2023-04-16T08:17:55;8.67;;;2.70;;
4698;SDS011;33708;49.466;11.176;2023-04-16T08:20:21;7.33;;;1.70;;
4698;SDS011;33708;49.466;11.176;2023-04-16T08:22:47;6.73;;;1.40;;
4698;SDS011;33708;49.466;11.176;2023-04-16T08:25:15;7.87;;;1.50;;
4698;SDS011;33708;49.466;11.176;2023-04-16T08:27:41;8.13;;;1.80;;
4698;SDS011;33708;49.466;11.176;2023-04-16T08:30:06;7.80;;;1.70;;
4698;SDS011;33708;49.466;11.176;2023-04-16T08:32:32;6.93;;;1.30;;
4698;SDS011;33708;49.466;11.176;2023-04-16T08:34:58;7.60;;;1.50;;
4698;SDS011;33708;49.466;11.176;2023-04-16T08:37:24;7.43;;;1.40;;
4698;SDS011;33708;49.466;11.176;2023-04-16T08:39:50;7.50;;;1.50;;
4698;SDS011;33708;49.466;11.176;2023-04-16T08:42:17;7.30;;;1.30;;
4698;SDS011;33708;49.466;11.176;2023-04-16T08:44:48;7.00;;;1.27;;
4698;SDS011;33708;49.466;11.176;2023-04-16T08:47:20;7.20;;;1.30;;
4698;SDS011;33708;49.466;11.176;2023-04-16T08:49:49;6.90;;;1.20;;
4698;SDS011;33708;49.466;11.176;2023-04-16T08:52:17;7.60;;;1.20;;
4698;SDS011;33708;49.466;11.176;2023-04-16T08:54:46;6.87;;;0.90;;
4698;SDS011;33708;49.466;11.176;2023-04-16T08:57:18;8.10;;;1.27;;
4698;SDS011;33708;49.466;11.176;2023-04-16T08:59:47;7.30;;;1.10;;
4698;SDS011;33708;49.466;11.176;2023-04-16T09:02:13;7.57;;;1.17;;
4698;SDS011;33708;49.466;11.176;2023-04-16T09:04:40;7.10;;;1.10;;
4698;SDS011;33708;49.466;11.176;2023-04-16T09:07:09;7.07;;;1.13;;
4698;SDS011;33708;49.466;11.176;2023-04-16T09:09:35;6.70;;;0.90;;
4698;SDS011;33708;49.466;11.176;2023-04-16T09:12:03;6.80;;;1.00;;
4698;SDS011;33708;49.466;11.176;2023-04-16T09:14:29;6.87;;;0.80;;
4698;SDS011;33708;49.466;11.176;2023-04-16T09:16:55;7.00;;;1.10;;
4698;SDS011;33708;49.466;11.176;2023-04-16T09:19:21;6.80;;;1.00;;
4698;SDS011;33708;49.466;11.176;2023-04-16T09:21:47;8.57;;;0.87;;
4698;SDS011;33708;49.466;11.176;2023-04-16T09:24:13;6.60;;;0.87;;
4698;SDS011;33708;49.466;11.176;2023-04-16T09:26:42;6.97;;;0.90;;
4698;SDS011;33708;49.466;11.176;2023-04-16T09:29:08;7.40;;;1.37;;
4698;SDS011;33708;49.466;11.176;2023-04-16T09:31:33;7.00;;;0.90;;
4698;SDS011;33708;49.466;11.176;2023-04-16T09:34:05;6.77;;;0.77;;
4698;SDS011;33708;49.466;11.176;2023-04-16T09:36:33;8.83;;;0.80;;
4698;SDS011;33708;49.466;11.176;2023-04-16T09:39:00;6.90;;;1.00;;
4698;SDS011;33708;49.466;11.176;2023-04-16T09:41:27;7.20;;;0.90;;
4698;SDS011;33708;49.466;11.176;2023-04-16T09:46:24;6.57;;;0.80;;
4698;SDS011;33708;49.466;11.176;2023-04-16T09:49:03;6.17;;;0.70;;
4698;SDS011;33708;49.466;11.176;2023-04-16T09:51:35;6.57;;;0.73;;
4698;SDS011;33708;49.466;11.176;2023-04-16T09:54:03;6.30;;;0.60;;
4698;SDS011;33708;49.466;11.176;2023-04-16T09:56:29;8.40;;;0.90;;
4698;SDS011;33708;49.466;11.176;2023-04-16T09:58:55;6.63;;;0.80;;
4698;SDS011;33708;49.466;11.176;2023-04-16T10:01:23;6.63;;;0.70;;
4698;SDS011;33708;49.466;11.176;2023-04-16T10:03:51;6.60;;;0.80;;
4698;SDS011;33708;49.466;11.176;2023-04-16T10:06:19;7.00;;;0.90;;
4698;SDS011;33708;49.466;11.176;2023-04-16T10:11:17;7.20;;;0.90;;
4698;SDS011;33708;49.466;11.176;2023-04-16T10:13:43;6.80;;;0.90;;
4698;SDS011;33708;49.466;11.176;2023-04-16T10:16:09;10.10;;;0.80;;
4698;SDS011;33708;49.466;11.176;2023-04-16T10:18:36;7.03;;;1.13;;
4698;SDS011;33708;49.466;11.176;2023-04-16T10:21:03;6.73;;;0.90;;
4698;SDS011;33708;49.466;11.176;2023-04-16T10:23:29;8.53;;;1.07;;
4698;SDS011;33708;49.466;11.176;2023-04-16T10:25:56;8.80;;;1.10;;
4698;SDS011;33708;49.466;11.176;2023-04-16T10:28:23;7.43;;;1.67;;
4698;SDS011;33708;49.466;11.176;2023-04-16T10:30:49;7.07;;;1.30;;
4698;SDS011;33708;49.466;11.176;2023-04-16T10:33:20;7.80;;;1.40;;
4698;SDS011;33708;49.466;11.176;2023-04-16T10:35:48;6.87;;;1.10;;
4698;SDS011;33708;49.466;11.176;2023-04-16T10:38:27;7.53;;;1.30;;
4698;SDS011;33708;49.466;11.176;2023-04-16T10:40:59;7.27;;;1.07;;
4698;SDS011;33708;49.466;11.176;2023-04-16T10:43:27;7.33;;;1.47;;
4698;SDS011;33708;49.466;11.176;2023-04-16T10:45:54;7.53;;;1.53;;
4698;SDS011;33708;49.466;11.176;2023-04-16T10:48:20;7.13;;;1.50;;
4698;SDS011;33708;49.466;11.176;2023-04-16T10:50:55;7.50;;;1.40;;
4698;SDS011;33708;49.466;11.176;2023-04-16T10:53:22;7.33;;;1.30;;
4698;SDS011;33708;49.466;11.176;2023-04-16T10:55:58;6.90;;;1.17;;
4698;SDS011;33708;49.466;11.176;2023-04-16T10:58:36;7.70;;;1.50;;
4698;SDS011;33708;49.466;11.176;2023-04-16T11:01:05;7.60;;;1.83;;
4698;SDS011;33708;49.466;11.176;2023-04-16T11:03:41;7.40;;;1.30;;
4698;SDS011;33708;49.466;11.176;2023-04-16T11:06:22;8.87;;;2.03;;
4698;SDS011;33708;49.466;11.176;2023-04-16T11:08:50;7.83;;;1.60;;
4698;SDS011;33708;49.466;11.176;2023-04-16T11:11:17;7.07;;;1.37;;
4698;SDS011;33708;49.466;11.176;2023-04-16T11:13:43;7.10;;;1.33;;
4698;SDS011;33708;49.466;11.176;2023-04-16T11:16:13;6.93;;;1.20;;
4698;SDS011;33708;49.466;11.176;2023-04-16T11:18:39;7.87;;;1.60;;
4698;SDS011;33708;49.466;11.176;2023-04-16T11:21:09;8.10;;;1.97;;
4698;SDS011;33708;49.466;11.176;2023-04-16T11:23:49;7.57;;;1.70;;
4698;SDS011;33708;49.466;11.176;2023-04-16T11:26:19;9.97;;;1.40;;
4698;SDS011;33708;49.466;11.176;2023-04-16T11:28:50;7.40;;;1.50;;
4698;SDS011;33708;49.466;11.176;2023-04-16T11:31:16;6.90;;;1.30;;
4698;SDS011;33708;49.466;11.176;2023-04-16T11:33:42;7.23;;;1.30;;
4698;SDS011;33708;49.466;11.176;2023-04-16T11:36:07;7.30;;;1.33;;
4698;SDS011;33708;49.466;11.176;2023-04-16T11:38:34;7.50;;;1.17;;
4698;SDS011;33708;49.466;11.176;2023-04-16T11:41:01;7.40;;;1.30;;
4698;SDS011;33708;49.466;11.176;2023-04-16T11:43:26;7.23;;;1.30;;
4698;SDS011;33708;49.466;11.176;2023-04-16T11:45:56;7.40;;;1.45;;
4698;SDS011;33708;49.466;11.176;2023-04-16T11:48:30;7.20;;;1.30;;
4698;SDS011;33708;49.466;11.176;2023-04-16T11:51:13;8.57;;;1.23;;
4698;SDS011;33708;49.466;11.176;2023-04-16T11:53:49;7.07;;;1.40;;
4698;SDS011;33708;49.466;11.176;2023-04-16T11:56:35;6.97;;;1.13;;
4698;SDS011;33708;49.466;11.176;2023-04-16T11:59:19;13.60;;;1.30;;
4698;SDS011;33708;49.466;11.176;2023-04-16T12:01:50;7.60;;;2.00;;
4698;SDS011;33708;49.466;11.176;2023-04-16T12:04:20;7.10;;;1.40;;
4698;SDS011;33708;49.466;11.176;2023-04-16T12:07:06;7.63;;;1.43;;
4698;SDS011;33708;49.466;11.176;2023-04-16T12:09:35;7.07;;;1.33;;
4698;SDS011;33708;49.466;11.176;2023-04-16T12:12:02;7.07;;;1.10;;
4698;SDS011;33708;49.466;11.176;2023-04-16T12:14:29;6.57;;;1.00;;
4698;SDS011;33708;49.466;11.176;2023-04-16T12:16:55;6.80;;;1.00;;
4698;SDS011;33708;49.466;11.176;2023-04-16T12:19:55;6.90;;;1.30;;
4698;SDS011;33708;49.466;11.176;2023-04-16T12:22:32;7.30;;;1.20;;
4698;SDS011;33708;49.466;11.176;2023-04-16T12:25:20;7.67;;;1.30;;
4698;SDS011;33708;49.466;11.176;2023-04-16T12:27:49;9.47;;;1.30;;
4698;SDS011;33708;49.466;11.176;2023-04-16T12:30:19;7.57;;;1.10;;
4698;SDS011;33708;49.466;11.176;2023-04-16T12:32:47;8.50;;;1.37;;
4698;SDS011;33708;49.466;11.176;2023-04-16T12:35:35;8.27;;;1.33;;
4698;SDS011;33708;49.466;11.176;2023-04-16T12:38:00;8.00;;;1.40;;
4698;SDS011;33708;49.466;11.176;2023-04-16T12:40:27;9.93;;;1.40;;
4698;SDS011;33708;49.466;11.176;2023-04-16T12:42:53;7.20;;;1.30;;
4698;SDS011;33708;49.466;11.176;2023-04-16T12:45:18;7.37;;;1.60;;
4698;SDS011;33708;49.466;11.176;2023-04-16T12:47:45;7.10;;;1.40;;
4698;SDS011;33708;49.466;11.176;2023-04-16T12:50:11;7.00;;;1.40;;
4698;SDS011;33708;49.466;11.176;2023-04-16T12:52:36;7.83;;;1.30;;
4698;SDS011;33708;49.466;11.176;2023-04-16T12:55:02;7.70;;;1.37;;
4698;SDS011;33708;49.466;11.176;2023-04-16T12:57:28;7.40;;;1.40;;
4698;SDS011;33708;49.466;11.176;2023-04-16T12:59:54;14.23;;;1.40;;
4698;SDS011;33708;49.466;11.176;2023-04-16T13:02:21;6.93;;;1.30;;
4698;SDS011;33708;49.466;11.176;2023-04-16T13:04:47;8.30;;;1.57;;
4698;SDS011;33708;49.466;11.176;2023-04-16T13:07:13;9.20;;;1.50;;
4698;SDS011;33708;49.466;11.176;2023-04-16T13:09:39;9.23;;;1.60;;
4698;SDS011;33708;49.466;11.176;2023-04-16T13:12:05;7.07;;;1.40;;
4698;SDS011;33708;49.466;11.176;2023-04-16T13:14:31;7.60;;;1.70;;
4698;SDS011;33708;49.466;11.176;2023-04-16T13:16:56;8.73;;;1.53;;
4698;SDS011;33708;49.466;11.176;2023-04-16T13:19:22;7.90;;;1.70;;
4698;SDS011;33708;49.466;11.176;2023-04-16T13:21:47;9.10;;;1.80;;
4698;SDS011;33708;49.466;11.176;2023-04-16T13:24:13;7.30;;;1.40;;
4698;SDS011;33708;49.466;11.176;2023-04-16T13:26:39;7.10;;;1.33;;
4698;SDS011;33708;49.466;11.176;2023-04-16T13:29:04;7.40;;;1.50;;
4698;SDS011;33708;49.466;11.176;2023-04-16T13:31:30;7.57;;;1.57;;
4698;SDS011;33708;49.466;11.176;2023-04-16T13:33:55;8.40;;;1.40;;
4698;SDS011;33708;49.466;11.176;2023-04-16T13:36:21;8.60;;;1.43;;
4698;SDS011;33708;49.466;11.176;2023-04-16T13:38:47;6.90;;;1.23;;
4698;SDS011;33708;49.466;11.176;2023-04-16T13:41:12;7.57;;;1.47;;
4698;SDS011;33708;49.466;11.176;2023-04-16T13:43:38;7.00;;;1.20;;
4698;SDS011;33708;49.466;11.176;2023-04-16T13:46:03;7.20;;;1.40;;
4698;SDS011;33708;49.466;11.176;2023-04-16T13:48:29;8.00;;;1.20;;
4698;SDS011;33708;49.466;11.176;2023-04-16T13:50:55;7.10;;;1.30;;
4698;SDS011;33708;49.466;11.176;2023-04-16T13:53:20;8.03;;;1.93;;
4698;SDS011;33708;49.466;11.176;2023-04-16T13:55:46;8.73;;;1.70;;
4698;SDS011;33708;49.466;11.176;2023-04-16T13:58:13;12.27;;;2.00;;
4698;SDS011;33708;49.466;11.176;2023-04-16T14:00:39;7.23;;;1.50;;
4698;SDS011;33708;49.466;11.176;2023-04-16T14:03:06;7.33;;;1.50;;
4698;SDS011;33708;49.466;11.176;2023-04-16T14:05:32;6.90;;;1.20;;
4698;SDS011;33708;49.466;11.176;2023-04-16T14:07:57;8.80;;;1.40;;
4698;SDS011;33708;49.466;11.176;2023-04-16T14:10:23;7.30;;;1.40;;
4698;SDS011;33708;49.466;11.176;2023-04-16T14:12:49;7.57;;;1.40;;
4698;SDS011;33708;49.466;11.176;2023-04-16T14:15:15;7.50;;;1.60;;
4698;SDS011;33708;49.466;11.176;2023-04-16T14:17:44;11.83;;;1.60;;
4698;SDS011;33708;49.466;11.176;2023-04-16T14:20:10;8.80;;;1.60;;
4698;SDS011;33708;49.466;11.176;2023-04-16T14:22:37;7.93;;;1.87;;
4698;SDS011;33708;49.466;11.176;2023-04-16T14:25:03;7.00;;;1.37;;
4698;SDS011;33708;49.466;11.176;2023-04-16T14:27:29;7.30;;;1.50;;
4698;SDS011;33708;49.466;11.176;2023-04-16T14:29:55;7.17;;;1.60;;
4698;SDS011;33708;49.466;11.176;2023-04-16T14:32:21;7.30;;;1.53;;
4698;SDS011;33708;49.466;11.176;2023-04-16T14:34:47;7.17;;;1.50;;
4698;SDS011;33708;49.466;11.176;2023-04-16T14:37:15;7.93;;;1.80;;
4698;SDS011;33708;49.466;11.176;2023-04-16T14:39:41;7.50;;;1.70;;
4698;SDS011;33708;49.466;11.176;2023-04-16T14:42:07;7.43;;;1.83;;
4698;SDS011;33708;49.466;11.176;2023-04-16T14:44:32;7.53;;;1.60;;
4698;SDS011;33708;49.466;11.176;2023-04-16T14:46:58;8.97;;;1.90;;